Tuesday, May 21, 2019, 1:22 PM EDT
Back to Local

KASH, Nashua, Boire Field Airport

Location: Nashua, NH, United States Lat: 42.782
Local Time: 1:22 PM EDT (17:22 GMT) Lon: -71.515
Time Zone: US/Eastern Elev: 200 ft

Show me the last for .
Show Decoded

2019-05-21 12:56 METAR KASH 211656Z 29013G26KT 250V320 10SM SCT060 18/02 A2978 RMK AO2 PK WND
                 31031/1623 SLP094 T01780022 =
2019-05-21 11:56 METAR KASH 211556Z 29019G28KT 10SM SCT060 18/02 A2978 RMK AO2 PK WND 31031/1517
                 SLP095 T01780017 =
2019-05-21 10:56 METAR KASH 211456Z COR 31022G28KT 10SM SCT060 17/02 A2977 RMK AO2 PK WND
                 31028/1453 SLP088 T01670017 50001 =
2019-05-21 09:56 METAR KASH 211356Z 32019G24KT 10SM SCT060 16/01 A2977 RMK AO2 PK WND 31029/1343
                 SLP089 T01560011 =
2019-05-21 08:56 METAR KASH 211256Z COR 30021KT 10SM SCT050 14/03 A2978 RMK AO2 PK WND 31029/1221
                 SLP093 T01440028 =
2019-05-21 07:56 METAR KASH 211156Z 30016G22KT 10SM SCT048 14/04 A2976 RMK AO2 PK WND 30027/1134
                 SLP088 T01440044 10167 20128 53013 =
2019-05-21 06:56 METAR KASH 211056Z 29014G18KT 10SM BKN048 13/06 A2975 RMK AO2 SLP083 T01330056 =
2019-05-21 05:56 METAR KASH 210956Z AUTO VRB06KT 10SM CLR 13/06 A2974 RMK AO2 SLP078 T01280061 =
2019-05-21 04:56 METAR KASH 210856Z AUTO 28009G15KT 10SM CLR 13/06 A2972 RMK AO2 SLP074 T01330056
                 51007 =
2019-05-21 03:56 METAR KASH 210756Z AUTO 28009G15KT 10SM CLR 14/06 A2972 RMK AO2 SLP072 T01390061
                 =
2019-05-21 02:56 METAR KASH 210656Z AUTO 27009KT 10SM CLR 16/07 A2972 RMK AO2 SLP073 T01560067 =
2019-05-21 01:56 METAR KASH 210556Z AUTO 29011G20KT 10SM FEW070 17/07 A2971 RMK AO2 SLP067
                 T01670072 10239 20167 50006 =
2019-05-21 00:56 METAR KASH 210456Z AUTO 29011KT 10SM SCT070 BKN100 18/08 A2971 RMK AO2 SLP068
                 T01830083 402890183 =
2019-05-20 23:56 METAR KASH 210356Z AUTO 29017G25KT 10SM OVC060 20/10 A2971 RMK AO2 SLP069
                 T02000100 =
2019-05-20 22:56 METAR KASH 210256Z AUTO 29011KT 10SM FEW050 OVC065 23/15 A2969 RMK AO2 SLP060
                 T02280150 53018 =
2019-05-20 21:56 METAR KASH 210156Z AUTO 26003KT 10SM OVC060 22/18 A2966 RMK AO2 LTG DSNT S AND
                 SW SLP051 T02170178 =
2019-05-20 20:56 METAR KASH 210056Z 00000KT 10SM SCT080 BKN100 23/17 A2964 RMK AO2 SLP045
                 T02330172 =
2019-05-20 19:56 METAR KASH 202356Z 00000KT 10SM SCT030 BKN095 23/17 A2963 RMK AO2 SLP043 60000
                 T02330167 10289 20233 55000 =
2019-05-20 18:56 METAR KASH 202256Z 26005G12KT 10SM SCT030 BKN060 27/14 A2963 RMK AO2 SLP040
                 T02670144 =
2019-05-20 17:56 METAR KASH 202156Z COR 25007G14KT 220V280 10SM FEW030 SCT060 28/16 A2962 RMK AO2
                 SLP037 T02830156 =
2019-05-20 16:56 METAR KASH 202056Z COR 25007G14KT 220V280 10SM SCT050 SCT110 28/17 A2964 RMK AO2
                 RAB1958E14 SLP043 P0000 60000 T02830172 58019 =
2019-05-20 15:56 METAR KASH 201956Z 24009G16KT 200V290 10SM BKN050 BKN085 OVC110 28/17 A2965 RMK
                 AO2 SLP048 T02780172 =
2019-05-20 14:56 METAR KASH 201856Z 30010G16KT 10SM BKN048 BKN110 25/19 A2968 RMK AO2 RAB30E41
                 SLP059 P0000 T02500194 =
2019-05-20 13:56 METAR KASH 201756Z 26008G14KT 230V300 10SM SCT049 BKN060 BKN110 27/18 A2969 =

Support USWX by starting your Amazon purchase here.